createdAt,value
2017-11-08T00:01:58.376Z,7.60
2017-11-08T00:04:25.836Z,7.63
2017-11-08T00:06:56.145Z,7.58
2017-11-08T00:09:23.614Z,7.55
2017-11-08T00:11:51.179Z,7.23
2017-11-08T00:14:18.673Z,7.27
2017-11-08T00:16:46.141Z,7.35
2017-11-08T00:19:13.626Z,7.39
2017-11-08T00:21:45.443Z,7.44
2017-11-08T00:24:12.925Z,7.45
2017-11-08T00:26:40.412Z,7.46
2017-11-08T00:29:07.897Z,7.43
2017-11-08T00:31:35.352Z,7.48
2017-11-08T00:34:02.849Z,7.49
2017-11-08T00:36:30.311Z,7.45
2017-11-08T00:38:57.804Z,7.45
2017-11-08T00:41:25.282Z,7.45
2017-11-08T00:43:52.768Z,7.57
2017-11-08T00:46:20.232Z,7.55
2017-11-08T00:48:47.718Z,7.51
2017-11-08T00:51:15.188Z,7.45
2017-11-08T00:53:42.645Z,7.52
2017-11-08T00:56:10.124Z,7.42
2017-11-08T00:58:37.593Z,7.38
2017-11-08T01:01:05.069Z,7.28
2017-11-08T01:03:32.529Z,7.46
2017-11-08T01:06:00.029Z,7.39
2017-11-08T01:08:27.484Z,7.00
2017-11-08T01:10:54.978Z,7.24
2017-11-08T01:13:22.449Z,7.27
2017-11-08T01:15:49.973Z,7.39
2017-11-08T01:18:17.453Z,7.40
2017-11-08T01:20:44.913Z,7.41
2017-11-08T01:23:12.380Z,7.46
2017-11-08T01:25:39.879Z,7.59
2017-11-08T01:28:07.347Z,7.64
2017-11-08T01:30:34.815Z,7.61
2017-11-08T01:33:02.412Z,7.61
2017-11-08T01:35:29.898Z,7.57
2017-11-08T01:37:57.385Z,7.57
2017-11-08T01:40:24.872Z,7.58
2017-11-08T01:42:52.432Z,7.56
2017-11-08T01:45:20.001Z,7.45
2017-11-08T01:47:47.475Z,7.55
2017-11-08T01:50:14.924Z,7.93
2017-11-08T01:52:42.476Z,7.74
2017-11-08T01:55:10.019Z,7.72
2017-11-08T01:57:37.516Z,7.67
2017-11-08T02:00:04.997Z,7.57
2017-11-08T02:02:32.457Z,7.65
2017-11-08T02:04:59.954Z,7.66
2017-11-08T02:07:27.421Z,7.63
2017-11-08T02:09:54.890Z,7.65
2017-11-08T02:12:22.382Z,7.66
2017-11-08T02:14:55.548Z,7.67
2017-11-08T02:17:23.078Z,7.69
2017-11-08T02:19:50.557Z,7.71
2017-11-08T02:22:18.017Z,7.98
2017-11-08T02:24:48.212Z,8.07
2017-11-08T02:27:17.552Z,8.27
2017-11-08T02:29:45.060Z,8.10
2017-11-08T02:32:15.385Z,8.38
2017-11-08T02:34:42.907Z,8.15
2017-11-08T02:37:10.372Z,8.07
2017-11-08T02:39:37.881Z,8.07
2017-11-08T02:42:06.139Z,7.94
2017-11-08T02:44:33.609Z,7.98
2017-11-08T02:47:01.089Z,7.92
2017-11-08T02:49:28.603Z,7.89
2017-11-08T02:51:56.172Z,7.91
2017-11-08T02:54:23.624Z,7.84
2017-11-08T02:56:51.104Z,7.87
2017-11-08T02:59:18.652Z,7.97
2017-11-08T03:01:46.205Z,7.87
2017-11-08T03:04:13.669Z,8.30
2017-11-08T03:06:41.155Z,8.16
2017-11-08T03:09:08.660Z,8.51
2017-11-08T03:11:36.227Z,8.17
2017-11-08T03:14:03.698Z,8.41
2017-11-08T03:16:31.247Z,8.34
2017-11-08T03:18:58.729Z,8.63
2017-11-08T03:21:26.266Z,8.41
2017-11-08T03:23:53.750Z,8.28
2017-11-08T03:26:21.205Z,8.46
2017-11-08T03:28:48.685Z,8.52
2017-11-08T03:31:16.152Z,8.55
2017-11-08T03:33:43.647Z,8.39
2017-11-08T03:36:11.113Z,8.44
2017-11-08T03:38:38.587Z,8.41
2017-11-08T03:41:06.101Z,8.29
2017-11-08T03:43:33.680Z,8.16
2017-11-08T03:46:01.130Z,8.22
2017-11-08T03:48:28.686Z,8.25
2017-11-08T03:50:56.140Z,8.28
2017-11-08T03:53:23.714Z,8.21
2017-11-08T03:55:51.196Z,8.41
2017-11-08T03:58:18.648Z,8.33
2017-11-08T04:00:46.123Z,8.42
2017-11-08T04:03:13.600Z,8.44
2017-11-08T04:05:41.089Z,8.28
2017-11-08T04:08:08.555Z,8.17
2017-11-08T04:10:36.085Z,8.07
2017-11-08T04:13:03.553Z,7.99
2017-11-08T04:15:31.068Z,7.93
2017-11-08T04:17:58.535Z,7.97
2017-11-08T04:20:26.039Z,7.97
2017-11-08T04:22:53.494Z,7.99
2017-11-08T04:25:20.961Z,7.98
2017-11-08T04:27:48.470Z,8.02
2017-11-08T04:30:15.920Z,8.02
2017-11-08T04:32:43.401Z,8.05
2017-11-08T04:35:10.880Z,8.06
2017-11-08T04:37:38.368Z,7.96
2017-11-08T04:40:05.889Z,8.02
2017-11-08T04:42:33.361Z,8.27
2017-11-08T04:45:00.833Z,8.22
2017-11-08T04:47:28.321Z,8.22
2017-11-08T04:49:55.781Z,8.22
2017-11-08T04:52:23.280Z,8.30
2017-11-08T04:54:50.758Z,8.53
2017-11-08T04:57:18.262Z,8.46
2017-11-08T04:59:45.723Z,8.69
2017-11-08T05:02:13.246Z,8.22
2017-11-08T05:04:40.716Z,8.10
2017-11-08T05:07:08.203Z,8.10
2017-11-08T05:09:35.686Z,7.90
2017-11-08T05:12:03.157Z,7.94
2017-11-08T05:14:30.637Z,7.86
2017-11-08T05:16:58.091Z,7.88
2017-11-08T05:19:25.617Z,7.95
2017-11-08T05:21:53.071Z,7.95
2017-11-08T05:24:20.543Z,7.96
2017-11-08T05:26:47.996Z,8.20
2017-11-08T05:29:15.534Z,7.98
2017-11-08T05:31:42.997Z,7.85
2017-11-08T05:34:10.472Z,7.87
2017-11-08T05:36:37.948Z,7.81
2017-11-08T05:39:05.465Z,7.76
2017-11-08T05:41:32.945Z,7.77
2017-11-08T05:44:00.428Z,7.76
2017-11-08T05:46:27.918Z,7.77
2017-11-08T05:48:55.383Z,7.73
2017-11-08T05:51:22.943Z,7.73
2017-11-08T05:53:50.404Z,7.69
2017-11-08T05:56:17.895Z,7.75
2017-11-08T05:58:45.353Z,7.70
2017-11-08T06:01:12.823Z,7.75
2017-11-08T06:03:40.337Z,7.80
2017-11-08T06:06:07.795Z,8.01
2017-11-08T06:08:35.321Z,7.92
2017-11-08T06:11:02.775Z,7.96
2017-11-08T06:13:30.250Z,7.83
2017-11-08T06:15:57.720Z,7.84
2017-11-08T06:18:25.199Z,7.79
2017-11-08T06:20:52.664Z,7.82
2017-11-08T06:23:20.145Z,7.84
2017-11-08T06:25:47.604Z,7.78
2017-11-08T06:28:15.077Z,7.78
2017-11-08T06:30:42.565Z,7.85
2017-11-08T06:33:10.047Z,7.85
2017-11-08T06:35:37.579Z,7.83
2017-11-08T06:38:05.055Z,7.77
2017-11-08T06:40:32.541Z,7.79
2017-11-08T06:43:00.020Z,7.80
2017-11-08T06:45:27.495Z,7.79
2017-11-08T06:47:55.060Z,7.79
2017-11-08T06:50:23.732Z,7.91
2017-11-08T06:52:51.180Z,7.88
2017-11-08T06:55:18.668Z,7.87
2017-11-08T06:57:46.341Z,7.87
2017-11-08T07:00:13.845Z,7.92
2017-11-08T07:02:41.342Z,7.91
2017-11-08T07:05:08.820Z,7.85
2017-11-08T07:07:36.291Z,7.86
2017-11-08T07:10:03.813Z,7.84
2017-11-08T07:12:31.281Z,7.94
2017-11-08T07:14:58.740Z,7.91
2017-11-08T07:17:31.183Z,7.90
2017-11-08T07:19:58.642Z,7.91
2017-11-08T07:22:26.123Z,7.92
2017-11-08T07:24:53.589Z,7.94
2017-11-08T07:27:21.070Z,8.18
2017-11-08T07:29:48.532Z,8.32
2017-11-08T07:32:16.030Z,8.27
2017-11-08T07:34:43.493Z,8.25
2017-11-08T07:37:10.968Z,8.09
2017-11-08T07:39:38.427Z,8.07
2017-11-08T07:42:05.911Z,8.19
2017-11-08T07:44:33.369Z,8.14
2017-11-08T07:47:00.893Z,8.15
2017-11-08T07:49:28.375Z,8.11
2017-11-08T07:51:56.812Z,8.06
2017-11-08T07:54:25.058Z,8.03
2017-11-08T07:56:56.432Z,8.02
2017-11-08T07:59:25.856Z,8.00
2017-11-08T08:01:53.393Z,8.01
2017-11-08T08:04:20.921Z,8.03
2017-11-08T08:06:48.388Z,8.00
2017-11-08T08:09:15.860Z,7.98
2017-11-08T08:11:43.375Z,7.98
2017-11-08T08:14:10.858Z,8.04
2017-11-08T08:16:38.321Z,8.03
2017-11-08T08:19:05.927Z,8.34
2017-11-08T08:21:33.394Z,8.22
2017-11-08T08:24:00.872Z,8.18
2017-11-08T08:26:30.248Z,8.17
2017-11-08T08:28:57.760Z,8.07
2017-11-08T08:31:25.216Z,8.06
2017-11-08T08:33:52.721Z,8.06
2017-11-08T08:36:20.176Z,8.01
2017-11-08T08:38:47.641Z,8.01
2017-11-08T08:41:15.121Z,8.15
2017-11-08T08:43:42.616Z,8.10
2017-11-08T08:46:10.097Z,7.98
2017-11-08T08:48:37.561Z,8.03
2017-11-08T08:51:05.036Z,8.03
2017-11-08T08:53:32.487Z,8.10
2017-11-08T08:55:59.985Z,8.17
2017-11-08T08:58:27.448Z,8.18
2017-11-08T09:00:54.950Z,8.15
2017-11-08T09:03:22.411Z,8.21
2017-11-08T09:05:49.893Z,8.17
2017-11-08T09:08:17.384Z,8.13
2017-11-08T09:10:44.884Z,8.11
2017-11-08T09:13:12.406Z,8.12
2017-11-08T09:15:39.873Z,8.24
2017-11-08T09:18:07.376Z,8.20
2017-11-08T09:20:34.828Z,8.22
2017-11-08T09:23:02.299Z,8.15
2017-11-08T09:25:30.681Z,8.19
2017-11-08T09:27:58.158Z,8.18
2017-11-08T09:30:25.648Z,8.19
2017-11-08T09:32:53.128Z,8.34
2017-11-08T09:35:24.466Z,8.33
2017-11-08T09:40:46.749Z,8.35
2017-11-08T09:43:19.866Z,8.57
2017-11-08T09:45:47.328Z,8.45
2017-11-08T09:48:14.887Z,8.37
2017-11-08T09:50:42.343Z,8.36
2017-11-08T09:53:09.836Z,8.44
2017-11-08T09:55:37.386Z,8.43
2017-11-08T09:58:05.017Z,8.42
2017-11-08T10:00:32.592Z,8.50
2017-11-08T10:03:00.064Z,8.54
2017-11-08T10:05:31.348Z,8.54
2017-11-08T10:07:58.849Z,8.48
2017-11-08T10:10:30.297Z,8.59
2017-11-08T10:13:03.437Z,8.55
2017-11-08T10:15:30.922Z,8.50
2017-11-08T10:17:58.385Z,8.52
2017-11-08T10:20:25.901Z,8.49
2017-11-08T10:22:53.359Z,8.62
2017-11-08T10:25:20.868Z,8.55
2017-11-08T10:27:48.376Z,8.57
2017-11-08T10:30:15.855Z,8.54
2017-11-08T10:32:43.449Z,8.56
2017-11-08T10:35:10.960Z,8.60
2017-11-08T10:37:38.443Z,8.56
2017-11-08T10:40:05.947Z,8.82
2017-11-08T10:42:33.375Z,8.84
2017-11-08T10:45:00.856Z,8.81
2017-11-08T10:47:28.342Z,8.69
2017-11-08T10:49:55.838Z,8.99
2017-11-08T10:52:23.321Z,8.89
2017-11-08T10:54:50.810Z,9.12
2017-11-08T10:57:18.284Z,9.08
2017-11-08T10:59:51.546Z,8.89
2017-11-08T11:02:19.940Z,8.97
2017-11-08T11:04:48.228Z,8.93
2017-11-08T11:07:15.785Z,9.21
2017-11-08T11:09:43.298Z,9.05
2017-11-08T11:12:10.811Z,9.18
2017-11-08T11:14:38.265Z,9.33
2017-11-08T11:17:05.747Z,9.19
2017-11-08T11:19:33.250Z,9.08
2017-11-08T11:22:01.683Z,9.20
2017-11-08T11:24:34.017Z,9.10
2017-11-08T11:27:07.142Z,9.35
2017-11-08T11:29:34.619Z,9.23
2017-11-08T11:32:02.125Z,9.45
2017-11-08T11:34:29.632Z,9.48
2017-11-08T11:36:57.084Z,9.42
2017-11-08T11:39:24.607Z,9.19
2017-11-08T11:41:53.007Z,9.23
2017-11-08T11:44:20.489Z,9.09
2017-11-08T11:46:47.992Z,9.19
2017-11-08T11:49:15.486Z,9.10
2017-11-08T11:51:42.999Z,9.46
2017-11-08T11:54:10.478Z,9.34
2017-11-08T11:56:37.942Z,9.22
2017-11-08T11:59:05.481Z,9.30
2017-11-08T12:01:32.948Z,9.33
2017-11-08T12:04:00.507Z,9.35
2017-11-08T12:06:27.975Z,9.69
2017-11-08T12:08:55.509Z,9.83
2017-11-08T12:11:23.062Z,9.86
2017-11-08T12:13:51.352Z,9.81
2017-11-08T12:16:18.849Z,9.80
2017-11-08T12:18:46.316Z,9.46
2017-11-08T12:21:13.793Z,9.38
2017-11-08T12:23:41.272Z,9.61
2017-11-08T12:26:08.923Z,9.29
2017-11-08T12:28:45.070Z,9.18
2017-11-08T12:31:12.547Z,9.09
2017-11-08T12:33:40.083Z,9.07
2017-11-08T12:36:07.583Z,9.11
2017-11-08T12:38:38.040Z,9.09
2017-11-08T12:41:05.658Z,9.16
2017-11-08T12:43:33.200Z,9.15
2017-11-08T12:46:00.698Z,9.15
2017-11-08T12:48:28.200Z,8.97
2017-11-08T12:50:55.730Z,9.01
2017-11-08T12:53:23.206Z,9.01
2017-11-08T12:55:50.743Z,9.01
2017-11-08T12:58:18.281Z,9.04
2017-11-08T13:00:45.829Z,8.97
2017-11-08T13:03:13.312Z,9.02
2017-11-08T13:05:41.597Z,9.03
2017-11-08T13:08:09.118Z,9.00
2017-11-08T13:10:42.222Z,9.02
2017-11-08T13:13:09.705Z,9.10
2017-11-08T13:15:37.185Z,9.05
2017-11-08T13:18:04.670Z,9.09
2017-11-08T13:20:32.131Z,9.19
2017-11-08T13:22:59.609Z,9.24
2017-11-08T13:25:27.075Z,9.24
2017-11-08T13:27:54.562Z,9.20
2017-11-08T13:30:22.021Z,9.18
2017-11-08T13:32:49.538Z,9.35
2017-11-08T13:35:17.001Z,9.28
2017-11-08T13:37:44.502Z,9.38
2017-11-08T13:40:13.754Z,9.43
2017-11-08T13:42:41.248Z,9.30
2017-11-08T13:45:09.661Z,9.64
2017-11-08T13:47:37.125Z,9.52
2017-11-08T13:50:04.604Z,9.39
2017-11-08T13:52:32.068Z,9.33
2017-11-08T13:54:59.598Z,9.21
2017-11-08T13:57:27.071Z,9.20
2017-11-08T13:59:54.553Z,9.06
2017-11-08T14:02:22.018Z,9.04
2017-11-08T14:04:49.502Z,9.09
2017-11-08T14:07:16.956Z,9.07
2017-11-08T14:09:44.444Z,9.10
2017-11-08T14:12:11.897Z,9.09
2017-11-08T14:14:39.349Z,9.10
2017-11-08T14:17:06.828Z,9.06
2017-11-08T14:19:34.280Z,9.00
2017-11-08T14:22:01.761Z,9.04
2017-11-08T14:24:29.300Z,9.11
2017-11-08T14:26:56.776Z,9.14
2017-11-08T14:29:24.236Z,9.11
2017-11-08T14:31:51.794Z,9.17
2017-11-08T14:34:19.262Z,9.19
2017-11-08T14:36:48.538Z,9.13
2017-11-08T14:39:16.019Z,9.10
2017-11-08T14:41:49.119Z,9.14
2017-11-08T14:44:16.576Z,9.10
2017-11-08T14:46:44.082Z,9.15
2017-11-08T14:49:11.553Z,9.12
2017-11-08T14:51:39.110Z,9.12
2017-11-08T14:54:07.399Z,9.10
2017-11-08T14:56:34.926Z,9.10
2017-11-08T14:59:02.505Z,9.10
2017-11-08T15:01:30.001Z,9.05
2017-11-08T15:03:57.538Z,9.05
2017-11-08T15:06:24.999Z,9.05
2017-11-08T15:08:52.481Z,9.09
2017-11-08T15:11:20.094Z,9.12
2017-11-08T15:13:47.572Z,9.13
2017-11-08T15:16:15.035Z,9.14
2017-11-08T15:18:42.550Z,9.15
2017-11-08T15:21:10.015Z,9.11
2017-11-08T15:23:37.548Z,9.16
2017-11-08T15:26:05.030Z,9.13
2017-11-08T15:28:32.547Z,9.36
2017-11-08T15:31:00.016Z,9.17
2017-11-08T15:33:27.489Z,9.12
2017-11-08T15:35:54.949Z,9.40
2017-11-08T15:38:22.513Z,9.25
2017-11-08T15:40:49.977Z,9.24
2017-11-08T15:43:19.432Z,9.25
2017-11-08T15:45:46.936Z,9.18
2017-11-08T15:48:14.510Z,9.42
2017-11-08T15:50:42.017Z,9.43
2017-11-08T15:53:09.505Z,9.24
2017-11-08T15:55:37.008Z,9.24
2017-11-08T15:58:04.488Z,9.19
2017-11-08T16:00:31.961Z,9.12
2017-11-08T16:02:59.417Z,9.12
2017-11-08T16:05:26.914Z,9.12
2017-11-08T16:07:54.390Z,9.04
2017-11-08T16:10:21.879Z,9.05
2017-11-08T16:12:51.209Z,8.97
2017-11-08T16:15:18.705Z,9.05
2017-11-08T16:17:52.758Z,9.06
2017-11-08T16:20:20.236Z,9.10
2017-11-08T16:22:47.698Z,9.11
2017-11-08T16:25:15.154Z,9.08
2017-11-08T16:27:42.657Z,9.05
2017-11-08T16:30:10.154Z,9.06
2017-11-08T16:32:37.649Z,9.07
2017-11-08T16:35:05.118Z,9.04
2017-11-08T16:37:32.652Z,9.08
2017-11-08T16:40:00.096Z,9.03
2017-11-08T16:42:27.657Z,9.05
2017-11-08T16:44:55.117Z,9.06
2017-11-08T16:47:22.672Z,9.05
2017-11-08T16:49:50.243Z,9.05
2017-11-08T16:52:17.779Z,9.15
2017-11-08T16:54:45.288Z,9.03
2017-11-08T16:57:12.783Z,8.97
2017-11-08T16:59:40.248Z,8.91
2017-11-08T17:02:07.755Z,8.96
2017-11-08T17:04:35.245Z,8.98
2017-11-08T17:07:02.724Z,8.92
2017-11-08T17:09:30.217Z,8.91
2017-11-08T17:11:57.702Z,8.92
2017-11-08T17:14:25.190Z,8.91
2017-11-08T17:16:52.711Z,8.89
2017-11-08T17:19:20.219Z,8.92
2017-11-08T17:21:47.698Z,8.91
2017-11-08T17:24:15.235Z,8.89
2017-11-08T17:26:42.800Z,8.90
2017-11-08T17:29:16.824Z,9.21
2017-11-08T17:31:44.295Z,9.24
2017-11-08T17:34:11.825Z,9.15
2017-11-08T17:36:39.376Z,9.48
2017-11-08T17:39:06.925Z,9.21
2017-11-08T17:41:34.400Z,9.13
2017-11-08T17:44:01.913Z,9.06
2017-11-08T17:46:29.390Z,9.41
2017-11-08T17:48:56.850Z,9.46
2017-11-08T17:51:24.343Z,9.19
2017-11-08T17:53:51.822Z,9.49
2017-11-08T17:56:19.301Z,9.42
2017-11-08T17:58:46.784Z,9.53
2017-11-08T18:01:14.278Z,9.65
2017-11-08T18:03:41.798Z,9.25
2017-11-08T18:06:09.276Z,9.45
2017-11-08T18:08:36.733Z,9.58
2017-11-08T18:11:04.271Z,9.43
2017-11-08T18:13:31.739Z,9.50
2017-11-08T18:15:59.302Z,9.32
2017-11-08T18:18:26.799Z,9.29
2017-11-08T18:20:54.300Z,9.46
2017-11-08T18:23:21.820Z,9.44
2017-11-08T18:25:49.323Z,9.19
2017-11-08T18:28:16.825Z,9.40
2017-11-08T18:30:44.288Z,9.20
2017-11-08T18:33:11.788Z,9.25
2017-11-08T18:35:39.361Z,9.23
2017-11-08T18:38:06.856Z,9.23
2017-11-08T18:40:34.314Z,9.12
2017-11-08T18:43:01.802Z,9.19
2017-11-08T18:45:29.275Z,9.21
2017-11-08T18:47:56.760Z,9.10
2017-11-08T18:50:24.284Z,9.28
2017-11-08T18:52:51.778Z,8.98
2017-11-08T18:55:19.696Z,9.05
2017-11-08T18:57:47.206Z,9.24
2017-11-08T19:00:14.718Z,9.12
2017-11-08T19:02:42.288Z,9.20
2017-11-08T19:05:09.751Z,9.18
2017-11-08T19:07:37.242Z,9.16
2017-11-08T19:10:04.712Z,9.29
2017-11-08T19:12:32.190Z,9.44
2017-11-08T19:14:59.672Z,9.50
2017-11-08T19:17:27.151Z,9.26
2017-11-08T19:19:54.621Z,9.41
2017-11-08T19:22:22.125Z,9.40
2017-11-08T19:24:49.714Z,9.41
2017-11-08T19:27:17.176Z,9.26
2017-11-08T19:29:44.656Z,9.18
2017-11-08T19:32:12.124Z,9.15
2017-11-08T19:34:39.615Z,9.29
2017-11-08T19:37:07.077Z,9.42
2017-11-08T19:39:34.571Z,9.40
2017-11-08T19:42:02.097Z,9.27
2017-11-08T19:44:29.605Z,9.33
2017-11-08T19:46:57.169Z,9.36
2017-11-08T19:49:24.653Z,9.40
2017-11-08T19:51:52.148Z,9.47
2017-11-08T19:54:19.691Z,9.13
2017-11-08T19:56:47.170Z,9.43
2017-11-08T19:59:14.711Z,9.61
2017-11-08T20:01:42.272Z,9.47
2017-11-08T20:04:09.835Z,9.42
2017-11-08T20:06:37.318Z,9.54
2017-11-08T20:09:04.778Z,9.31
2017-11-08T20:11:32.254Z,9.48
2017-11-08T20:13:59.709Z,9.65
2017-11-08T20:16:27.197Z,9.55
2017-11-08T20:18:54.650Z,9.56
2017-11-08T20:21:22.149Z,9.56
2017-11-08T20:23:49.696Z,9.52
2017-11-08T20:26:17.175Z,9.33
2017-11-08T20:28:44.699Z,9.48
2017-11-08T20:31:12.189Z,9.30
2017-11-08T20:33:39.636Z,9.13
2017-11-08T20:36:07.163Z,9.13
2017-11-08T20:38:34.620Z,9.25
2017-11-08T20:41:02.078Z,9.32
2017-11-08T20:43:29.566Z,9.48
2017-11-08T20:45:57.045Z,9.08
2017-11-08T20:48:24.567Z,9.48
2017-11-08T20:50:52.119Z,9.15
2017-11-08T20:53:19.726Z,9.47
2017-11-08T20:55:47.198Z,9.45
2017-11-08T20:58:14.672Z,9.41
2017-11-08T21:00:42.158Z,9.56
2017-11-08T21:03:09.702Z,9.53
2017-11-08T21:05:37.158Z,9.43
2017-11-08T21:08:04.687Z,9.28
2017-11-08T21:10:32.168Z,9.06
2017-11-08T21:12:59.643Z,8.88
2017-11-08T21:15:27.097Z,8.80
2017-11-08T21:17:54.587Z,8.73
2017-11-08T21:20:22.100Z,8.74
2017-11-08T21:22:49.557Z,8.80
2017-11-08T21:25:17.068Z,8.78
2017-11-08T21:27:44.523Z,8.88
2017-11-08T21:30:12.002Z,8.96
2017-11-08T21:32:39.579Z,8.93
2017-11-08T21:35:07.077Z,8.86
2017-11-08T21:37:34.538Z,8.85
2017-11-08T21:40:02.027Z,8.80
2017-11-08T21:42:29.476Z,8.76
2017-11-08T21:44:56.979Z,9.10
2017-11-08T21:47:24.582Z,8.85
2017-11-08T21:49:52.152Z,8.75
2017-11-08T21:52:19.601Z,8.76
2017-11-08T21:54:47.113Z,8.89
2017-11-08T21:57:14.573Z,8.86
2017-11-08T21:59:42.149Z,8.79
2017-11-08T22:02:09.635Z,8.90
2017-11-08T22:04:37.104Z,9.04
2017-11-08T22:07:04.593Z,9.08
2017-11-08T22:09:32.250Z,9.09
2017-11-08T22:11:59.725Z,8.85
2017-11-08T22:14:27.181Z,8.96
2017-11-08T22:16:54.731Z,8.94
2017-11-08T22:19:22.198Z,9.28
2017-11-08T22:21:49.701Z,9.13
2017-11-08T22:24:17.171Z,9.18
2017-11-08T22:26:44.662Z,9.44
2017-11-08T22:29:12.159Z,9.44
2017-11-08T22:31:39.625Z,9.36
2017-11-08T22:34:07.118Z,9.52
2017-11-08T22:36:34.586Z,9.45
2017-11-08T22:39:05.894Z,9.26
2017-11-08T22:41:33.368Z,9.19
2017-11-08T22:44:00.939Z,9.18
2017-11-08T22:46:28.508Z,9.33
2017-11-08T22:48:56.029Z,9.08
2017-11-08T22:51:23.881Z,9.23
2017-11-08T22:53:51.374Z,8.98
2017-11-08T22:56:18.836Z,8.87
2017-11-08T22:58:46.321Z,8.88
2017-11-08T23:01:13.799Z,8.84
2017-11-08T23:03:41.929Z,8.83
2017-11-08T23:06:09.395Z,8.95
2017-11-08T23:08:36.886Z,8.90
2017-11-08T23:11:04.401Z,8.91
2017-11-08T23:13:31.914Z,8.83
2017-11-08T23:15:59.427Z,8.84
2017-11-08T23:18:26.894Z,8.80
2017-11-08T23:20:54.379Z,8.98
2017-11-08T23:23:21.847Z,8.98
2017-11-08T23:25:50.169Z,8.89
2017-11-08T23:28:17.620Z,8.79
2017-11-08T23:30:45.160Z,8.78
2017-11-08T23:33:12.613Z,8.76
2017-11-08T23:35:40.093Z,8.76
2017-11-08T23:38:07.558Z,8.74
2017-11-08T23:40:35.045Z,8.68
2017-11-08T23:43:02.496Z,8.64
2017-11-08T23:45:29.981Z,8.61
2017-11-08T23:47:57.482Z,8.61
2017-11-08T23:50:25.036Z,8.70
2017-11-08T23:52:52.619Z,8.72
2017-11-08T23:55:20.829Z,8.76
2017-11-08T23:57:48.339Z,8.75
